sensor_id;sensor_type;location;lat;lon;timestamp;temperature;humidity
27645;DHT22;15054;57.152;-2.118;2022-08-19T00:01:45;12.60;99.90
27645;DHT22;15054;57.152;-2.118;2022-08-19T00:04:25;12.60;99.90
27645;DHT22;15054;57.152;-2.118;2022-08-19T00:06:53;12.50;99.90
27645;DHT22;15054;57.152;-2.118;2022-08-19T00:09:24;12.40;99.90
27645;DHT22;15054;57.152;-2.118;2022-08-19T00:11:52;12.40;99.90
27645;DHT22;15054;57.152;-2.118;2022-08-19T00:14:20;12.30;99.90
27645;DHT22;15054;57.152;-2.118;2022-08-19T00:16:48;12.30;99.90
27645;DHT22;15054;57.152;-2.118;2022-08-19T00:19:16;12.30;99.90
27645;DHT22;15054;57.152;-2.118;2022-08-19T00:21:43;12.20;99.90
27645;DHT22;15054;57.152;-2.118;2022-08-19T00:24:13;12.20;99.90
27645;DHT22;15054;57.152;-2.118;2022-08-19T00:26:42;12.10;99.90
27645;DHT22;15054;57.152;-2.118;2022-08-19T00:29:11;12.10;99.90
27645;DHT22;15054;57.152;-2.118;2022-08-19T00:31:39;12.00;99.90
27645;DHT22;15054;57.152;-2.118;2022-08-19T00:34:07;12.00;99.90
27645;DHT22;15054;57.152;-2.118;2022-08-19T00:36:34;12.00;99.90
27645;DHT22;15054;57.152;-2.118;2022-08-19T00:39:02;11.90;99.90
27645;DHT22;15054;57.152;-2.118;2022-08-19T00:41:30;11.90;99.90
27645;DHT22;15054;57.152;-2.118;2022-08-19T00:44:14;11.70;99.90
27645;DHT22;15054;57.152;-2.118;2022-08-19T00:46:44;11.70;99.90
27645;DHT22;15054;57.152;-2.118;2022-08-19T00:49:36;11.60;99.90
27645;DHT22;15054;57.152;-2.118;2022-08-19T00:52:08;11.60;99.90
27645;DHT22;15054;57.152;-2.118;2022-08-19T00:54:37;11.50;99.90
27645;DHT22;15054;57.152;-2.118;2022-08-19T00:57:09;11.50;99.90
27645;DHT22;15054;57.152;-2.118;2022-08-19T00:59:40;11.40;99.90
27645;DHT22;15054;57.152;-2.118;2022-08-19T01:02:29;11.40;99.90
27645;DHT22;15054;57.152;-2.118;2022-08-19T01:04:57;11.30;99.90
27645;DHT22;15054;57.152;-2.118;2022-08-19T01:07:24;11.30;99.90
27645;DHT22;15054;57.152;-2.118;2022-08-19T01:09:52;11.30;99.90
27645;DHT22;15054;57.152;-2.118;2022-08-19T01:12:20;11.30;99.90
27645;DHT22;15054;57.152;-2.118;2022-08-19T01:14:49;11.30;99.90
27645;DHT22;15054;57.152;-2.118;2022-08-19T01:17:17;11.30;99.90
27645;DHT22;15054;57.152;-2.118;2022-08-19T01:19:47;11.20;99.90
27645;DHT22;15054;57.152;-2.118;2022-08-19T01:24:58;11.20;99.90
27645;DHT22;15054;57.152;-2.118;2022-08-19T01:27:26;11.20;99.90
27645;DHT22;15054;57.152;-2.118;2022-08-19T01:30:01;11.20;99.90
27645;DHT22;15054;57.152;-2.118;2022-08-19T01:32:28;11.20;99.90
27645;DHT22;15054;57.152;-2.118;2022-08-19T01:35:01;11.10;99.90
27645;DHT22;15054;57.152;-2.118;2022-08-19T01:37:30;11.10;99.90
27645;DHT22;15054;57.152;-2.118;2022-08-19T01:39:57;11.00;99.90
27645;DHT22;15054;57.152;-2.118;2022-08-19T01:42:24;11.00;99.90
27645;DHT22;15054;57.152;-2.118;2022-08-19T01:44:56;10.90;99.90
27645;DHT22;15054;57.152;-2.118;2022-08-19T01:47:23;10.90;99.90
27645;DHT22;15054;57.152;-2.118;2022-08-19T01:49:51;10.80;99.90
27645;DHT22;15054;57.152;-2.118;2022-08-19T01:52:18;10.80;99.90
27645;DHT22;15054;57.152;-2.118;2022-08-19T01:54:45;10.80;99.90
27645;DHT22;15054;57.152;-2.118;2022-08-19T01:57:14;10.70;99.90
27645;DHT22;15054;57.152;-2.118;2022-08-19T01:59:42;10.60;99.90
27645;DHT22;15054;57.152;-2.118;2022-08-19T02:02:11;10.50;99.90
27645;DHT22;15054;57.152;-2.118;2022-08-19T02:04:38;10.50;99.90
27645;DHT22;15054;57.152;-2.118;2022-08-19T02:07:06;10.50;99.90
27645;DHT22;15054;57.152;-2.118;2022-08-19T02:09:35;10.50;99.90
27645;DHT22;15054;57.152;-2.118;2022-08-19T02:12:04;10.50;99.90
27645;DHT22;15054;57.152;-2.118;2022-08-19T02:14:34;10.50;99.90
27645;DHT22;15054;57.152;-2.118;2022-08-19T02:17:02;10.50;99.90
27645;DHT22;15054;57.152;-2.118;2022-08-19T02:19:29;10.50;99.90
27645;DHT22;15054;57.152;-2.118;2022-08-19T02:21:59;10.40;99.90
27645;DHT22;15054;57.152;-2.118;2022-08-19T02:24:27;10.40;99.90
27645;DHT22;15054;57.152;-2.118;2022-08-19T02:26:55;10.40;99.90
27645;DHT22;15054;57.152;-2.118;2022-08-19T02:29:22;10.40;99.90
27645;DHT22;15054;57.152;-2.118;2022-08-19T02:31:50;10.40;99.90
27645;DHT22;15054;57.152;-2.118;2022-08-19T02:34:18;10.40;99.90
27645;DHT22;15054;57.152;-2.118;2022-08-19T02:36:45;10.40;99.90
27645;DHT22;15054;57.152;-2.118;2022-08-19T02:39:18;10.40;99.90
27645;DHT22;15054;57.152;-2.118;2022-08-19T02:41:46;10.40;99.90
27645;DHT22;15054;57.152;-2.118;2022-08-19T02:44:14;10.50;99.90
27645;DHT22;15054;57.152;-2.118;2022-08-19T02:46:57;10.60;99.90
27645;DHT22;15054;57.152;-2.118;2022-08-19T02:49:24;10.60;99.90
27645;DHT22;15054;57.152;-2.118;2022-08-19T02:51:51;10.60;99.90
27645;DHT22;15054;57.152;-2.118;2022-08-19T02:54:18;10.60;99.90
27645;DHT22;15054;57.152;-2.118;2022-08-19T02:56:45;10.70;99.90
27645;DHT22;15054;57.152;-2.118;2022-08-19T02:59:13;10.70;99.90
27645;DHT22;15054;57.152;-2.118;2022-08-19T03:01:41;10.70;99.90
27645;DHT22;15054;57.152;-2.118;2022-08-19T03:04:12;10.70;99.90
27645;DHT22;15054;57.152;-2.118;2022-08-19T03:06:42;10.70;99.90
27645;DHT22;15054;57.152;-2.118;2022-08-19T03:09:11;10.60;99.90
27645;DHT22;15054;57.152;-2.118;2022-08-19T03:11:39;10.60;99.90
27645;DHT22;15054;57.152;-2.118;2022-08-19T03:14:08;10.50;99.90
27645;DHT22;15054;57.152;-2.118;2022-08-19T03:16:47;10.50;99.90
27645;DHT22;15054;57.152;-2.118;2022-08-19T03:19:19;10.40;99.90
27645;DHT22;15054;57.152;-2.118;2022-08-19T03:21:48;10.40;99.90
27645;DHT22;15054;57.152;-2.118;2022-08-19T03:24:16;10.40;99.90
27645;DHT22;15054;57.152;-2.118;2022-08-19T03:26:48;10.30;99.90
27645;DHT22;15054;57.152;-2.118;2022-08-19T03:29:16;10.30;99.90
27645;DHT22;15054;57.152;-2.118;2022-08-19T03:32:00;10.30;99.90
27645;DHT22;15054;57.152;-2.118;2022-08-19T03:34:32;10.30;99.90
27645;DHT22;15054;57.152;-2.118;2022-08-19T03:37:08;10.30;99.90
27645;DHT22;15054;57.152;-2.118;2022-08-19T03:39:37;10.20;99.90
27645;DHT22;15054;57.152;-2.118;2022-08-19T03:42:05;10.30;99.90
27645;DHT22;15054;57.152;-2.118;2022-08-19T03:44:52;10.20;99.90
27645;DHT22;15054;57.152;-2.118;2022-08-19T03:47:19;10.20;99.90
27645;DHT22;15054;57.152;-2.118;2022-08-19T03:49:47;10.20;99.90
27645;DHT22;15054;57.152;-2.118;2022-08-19T03:52:14;10.20;99.90
27645;DHT22;15054;57.152;-2.118;2022-08-19T03:54:42;10.10;99.90
27645;DHT22;15054;57.152;-2.118;2022-08-19T03:57:09;10.10;99.90
27645;DHT22;15054;57.152;-2.118;2022-08-19T03:59:38;10.20;99.90
27645;DHT22;15054;57.152;-2.118;2022-08-19T04:02:09;10.30;99.90
27645;DHT22;15054;57.152;-2.118;2022-08-19T04:04:38;10.30;99.90
27645;DHT22;15054;57.152;-2.118;2022-08-19T04:07:05;10.30;99.90
27645;DHT22;15054;57.152;-2.118;2022-08-19T04:09:34;10.30;99.90
27645;DHT22;15054;57.152;-2.118;2022-08-19T04:12:04;10.30;99.90
27645;DHT22;15054;57.152;-2.118;2022-08-19T04:14:33;10.30;99.90
27645;DHT22;15054;57.152;-2.118;2022-08-19T04:17:02;10.40;99.90
27645;DHT22;15054;57.152;-2.118;2022-08-19T04:19:33;10.40;99.90
27645;DHT22;15054;57.152;-2.118;2022-08-19T04:22:01;10.40;99.90
27645;DHT22;15054;57.152;-2.118;2022-08-19T04:24:29;10.40;99.90
27645;DHT22;15054;57.152;-2.118;2022-08-19T04:26:56;10.50;99.90
27645;DHT22;15054;57.152;-2.118;2022-08-19T04:29:24;10.40;99.90
27645;DHT22;15054;57.152;-2.118;2022-08-19T04:31:55;10.50;99.90
27645;DHT22;15054;57.152;-2.118;2022-08-19T04:34:24;10.40;99.90
27645;DHT22;15054;57.152;-2.118;2022-08-19T04:36:53;10.40;99.90
27645;DHT22;15054;57.152;-2.118;2022-08-19T04:39:23;10.40;99.90
27645;DHT22;15054;57.152;-2.118;2022-08-19T04:42:11;10.40;99.90
27645;DHT22;15054;57.152;-2.118;2022-08-19T04:45:06;10.40;99.90
27645;DHT22;15054;57.152;-2.118;2022-08-19T04:47:36;10.40;99.90
27645;DHT22;15054;57.152;-2.118;2022-08-19T04:50:25;10.30;99.90
27645;DHT22;15054;57.152;-2.118;2022-08-19T04:52:53;10.30;99.90
27645;DHT22;15054;57.152;-2.118;2022-08-19T04:55:20;10.40;99.90
27645;DHT22;15054;57.152;-2.118;2022-08-19T04:57:47;10.40;99.90
27645;DHT22;15054;57.152;-2.118;2022-08-19T05:00:15;10.50;99.90
27645;DHT22;15054;57.152;-2.118;2022-08-19T05:02:42;10.50;99.90
27645;DHT22;15054;57.152;-2.118;2022-08-19T05:05:11;10.40;99.90
27645;DHT22;15054;57.152;-2.118;2022-08-19T05:07:39;10.50;99.90
27645;DHT22;15054;57.152;-2.118;2022-08-19T05:10:08;10.50;99.90
27645;DHT22;15054;57.152;-2.118;2022-08-19T05:12:35;10.50;99.90
27645;DHT22;15054;57.152;-2.118;2022-08-19T05:15:08;10.60;99.90
27645;DHT22;15054;57.152;-2.118;2022-08-19T05:17:35;10.60;99.90
27645;DHT22;15054;57.152;-2.118;2022-08-19T05:20:06;10.70;99.90
27645;DHT22;15054;57.152;-2.118;2022-08-19T05:22:52;10.70;99.90
27645;DHT22;15054;57.152;-2.118;2022-08-19T05:25:20;10.70;99.90
27645;DHT22;15054;57.152;-2.118;2022-08-19T05:27:48;10.80;99.90
27645;DHT22;15054;57.152;-2.118;2022-08-19T05:30:16;10.90;99.90
27645;DHT22;15054;57.152;-2.118;2022-08-19T05:32:44;10.90;99.90
27645;DHT22;15054;57.152;-2.118;2022-08-19T05:35:12;10.90;99.90
27645;DHT22;15054;57.152;-2.118;2022-08-19T05:37:39;11.00;99.90
27645;DHT22;15054;57.152;-2.118;2022-08-19T05:40:08;11.00;99.90
27645;DHT22;15054;57.152;-2.118;2022-08-19T05:42:36;11.00;99.90
27645;DHT22;15054;57.152;-2.118;2022-08-19T05:45:05;11.20;99.90
27645;DHT22;15054;57.152;-2.118;2022-08-19T05:47:32;11.20;99.90
27645;DHT22;15054;57.152;-2.118;2022-08-19T05:49:59;11.30;99.90
27645;DHT22;15054;57.152;-2.118;2022-08-19T05:52:31;11.30;99.90
27645;DHT22;15054;57.152;-2.118;2022-08-19T05:54:59;11.30;99.90
27645;DHT22;15054;57.152;-2.118;2022-08-19T05:57:27;11.40;99.90
27645;DHT22;15054;57.152;-2.118;2022-08-19T05:59:56;11.50;99.90
27645;DHT22;15054;57.152;-2.118;2022-08-19T06:02:26;11.60;99.90
27645;DHT22;15054;57.152;-2.118;2022-08-19T06:04:53;11.70;99.90
27645;DHT22;15054;57.152;-2.118;2022-08-19T06:07:20;11.80;99.90
27645;DHT22;15054;57.152;-2.118;2022-08-19T06:09:48;11.90;99.90
27645;DHT22;15054;57.152;-2.118;2022-08-19T06:12:32;12.00;99.90
27645;DHT22;15054;57.152;-2.118;2022-08-19T06:15:07;12.00;99.90
27645;DHT22;15054;57.152;-2.118;2022-08-19T06:17:35;12.10;99.90
27645;DHT22;15054;57.152;-2.118;2022-08-19T06:20:05;12.20;99.90
27645;DHT22;15054;57.152;-2.118;2022-08-19T06:22:38;12.20;99.90
27645;DHT22;15054;57.152;-2.118;2022-08-19T06:25:05;12.20;99.90
27645;DHT22;15054;57.152;-2.118;2022-08-19T06:27:33;12.30;99.90
27645;DHT22;15054;57.152;-2.118;2022-08-19T06:30:02;12.40;99.90
27645;DHT22;15054;57.152;-2.118;2022-08-19T06:32:30;12.40;99.90
27645;DHT22;15054;57.152;-2.118;2022-08-19T06:34:57;12.50;99.90
27645;DHT22;15054;57.152;-2.118;2022-08-19T06:37:24;12.50;99.90
27645;DHT22;15054;57.152;-2.118;2022-08-19T06:39:52;12.60;99.90
27645;DHT22;15054;57.152;-2.118;2022-08-19T06:42:19;12.70;99.90
27645;DHT22;15054;57.152;-2.118;2022-08-19T06:44:49;12.70;99.90
27645;DHT22;15054;57.152;-2.118;2022-08-19T06:47:21;12.80;99.90
27645;DHT22;15054;57.152;-2.118;2022-08-19T06:49:58;12.80;99.90
27645;DHT22;15054;57.152;-2.118;2022-08-19T06:52:35;12.90;99.90
27645;DHT22;15054;57.152;-2.118;2022-08-19T06:55:04;13.00;99.90
27645;DHT22;15054;57.152;-2.118;2022-08-19T06:57:33;13.00;99.90
27645;DHT22;15054;57.152;-2.118;2022-08-19T07:00:00;13.10;99.90
27645;DHT22;15054;57.152;-2.118;2022-08-19T07:02:28;13.20;99.90
27645;DHT22;15054;57.152;-2.118;2022-08-19T07:04:55;13.20;99.90
27645;DHT22;15054;57.152;-2.118;2022-08-19T07:07:25;13.30;99.90
27645;DHT22;15054;57.152;-2.118;2022-08-19T07:09:52;13.40;99.90
27645;DHT22;15054;57.152;-2.118;2022-08-19T07:12:28;13.50;99.90
27645;DHT22;15054;57.152;-2.118;2022-08-19T07:15:06;13.60;99.90
27645;DHT22;15054;57.152;-2.118;2022-08-19T07:17:35;13.70;99.90
27645;DHT22;15054;57.152;-2.118;2022-08-19T07:20:09;13.80;99.90
27645;DHT22;15054;57.152;-2.118;2022-08-19T07:22:38;13.80;99.90
27645;DHT22;15054;57.152;-2.118;2022-08-19T07:25:07;13.90;99.90
27645;DHT22;15054;57.152;-2.118;2022-08-19T07:27:35;14.00;99.90
27645;DHT22;15054;57.152;-2.118;2022-08-19T07:30:06;14.10;99.90
27645;DHT22;15054;57.152;-2.118;2022-08-19T07:32:38;14.20;99.90
27645;DHT22;15054;57.152;-2.118;2022-08-19T07:35:06;14.30;99.90
27645;DHT22;15054;57.152;-2.118;2022-08-19T07:37:34;14.40;99.90
27645;DHT22;15054;57.152;-2.118;2022-08-19T07:40:06;14.40;99.90
27645;DHT22;15054;57.152;-2.118;2022-08-19T07:42:33;14.50;99.90
27645;DHT22;15054;57.152;-2.118;2022-08-19T07:45:01;14.60;99.90
27645;DHT22;15054;57.152;-2.118;2022-08-19T07:47:28;14.80;99.90
27645;DHT22;15054;57.152;-2.118;2022-08-19T07:50:16;14.90;99.90
27645;DHT22;15054;57.152;-2.118;2022-08-19T07:52:45;15.00;99.90
27645;DHT22;15054;57.152;-2.118;2022-08-19T07:55:17;15.00;99.90
27645;DHT22;15054;57.152;-2.118;2022-08-19T07:58:05;15.10;99.90
27645;DHT22;15054;57.152;-2.118;2022-08-19T08:00:32;15.30;99.90
27645;DHT22;15054;57.152;-2.118;2022-08-19T08:02:59;15.40;99.90
27645;DHT22;15054;57.152;-2.118;2022-08-19T08:05:26;15.50;99.90
27645;DHT22;15054;57.152;-2.118;2022-08-19T08:08:12;15.60;99.90
27645;DHT22;15054;57.152;-2.118;2022-08-19T08:10:59;15.80;99.90
27645;DHT22;15054;57.152;-2.118;2022-08-19T08:13:27;15.90;99.90
27645;DHT22;15054;57.152;-2.118;2022-08-19T08:15:56;16.00;99.90
27645;DHT22;15054;57.152;-2.118;2022-08-19T08:18:24;16.10;99.90
27645;DHT22;15054;57.152;-2.118;2022-08-19T08:20:57;16.20;99.90
27645;DHT22;15054;57.152;-2.118;2022-08-19T08:23:25;16.30;99.90
27645;DHT22;15054;57.152;-2.118;2022-08-19T08:25:55;16.30;99.90
27645;DHT22;15054;57.152;-2.118;2022-08-19T08:28:24;16.50;99.90
27645;DHT22;15054;57.152;-2.118;2022-08-19T08:30:56;16.50;99.90
27645;DHT22;15054;57.152;-2.118;2022-08-19T08:33:27;16.60;99.90
27645;DHT22;15054;57.152;-2.118;2022-08-19T08:36:08;16.70;99.90
27645;DHT22;15054;57.152;-2.118;2022-08-19T08:38:38;16.90;99.90
27645;DHT22;15054;57.152;-2.118;2022-08-19T08:43:56;17.30;99.90
27645;DHT22;15054;57.152;-2.118;2022-08-19T08:46:39;17.50;99.90
27645;DHT22;15054;57.152;-2.118;2022-08-19T08:52:13;17.50;99.90
27645;DHT22;15054;57.152;-2.118;2022-08-19T08:54:45;17.50;99.90
27645;DHT22;15054;57.152;-2.118;2022-08-19T08:57:30;17.50;99.90
27645;DHT22;15054;57.152;-2.118;2022-08-19T09:00:11;17.40;99.90
27645;DHT22;15054;57.152;-2.118;2022-08-19T09:02:42;17.60;99.90
27645;DHT22;15054;57.152;-2.118;2022-08-19T09:05:10;17.80;99.90
27645;DHT22;15054;57.152;-2.118;2022-08-19T09:08:00;18.10;99.90
27645;DHT22;15054;57.152;-2.118;2022-08-19T09:10:39;18.10;99.90
27645;DHT22;15054;57.152;-2.118;2022-08-19T09:15:56;17.90;99.90
27645;DHT22;15054;57.152;-2.118;2022-08-19T09:18:25;17.70;99.90
27645;DHT22;15054;57.152;-2.118;2022-08-19T09:20:55;18.00;99.90
27645;DHT22;15054;57.152;-2.118;2022-08-19T09:23:23;18.20;99.90
27645;DHT22;15054;57.152;-2.118;2022-08-19T09:25:53;18.40;99.90
27645;DHT22;15054;57.152;-2.118;2022-08-19T09:28:20;18.50;99.90
27645;DHT22;15054;57.152;-2.118;2022-08-19T09:30:53;18.70;99.90
27645;DHT22;15054;57.152;-2.118;2022-08-19T09:33:20;18.90;99.90
27645;DHT22;15054;57.152;-2.118;2022-08-19T09:35:47;18.70;99.90
27645;DHT22;15054;57.152;-2.118;2022-08-19T09:38:20;18.40;99.90
27645;DHT22;15054;57.152;-2.118;2022-08-19T09:40:48;18.40;99.90
27645;DHT22;15054;57.152;-2.118;2022-08-19T09:43:16;18.50;99.90
27645;DHT22;15054;57.152;-2.118;2022-08-19T09:46:05;18.70;99.90
27645;DHT22;15054;57.152;-2.118;2022-08-19T09:48:34;18.80;99.90
27645;DHT22;15054;57.152;-2.118;2022-08-19T09:51:09;19.00;99.90
27645;DHT22;15054;57.152;-2.118;2022-08-19T09:53:38;19.30;99.90
27645;DHT22;15054;57.152;-2.118;2022-08-19T09:56:06;19.60;99.90
27645;DHT22;15054;57.152;-2.118;2022-08-19T09:58:36;19.50;99.90
27645;DHT22;15054;57.152;-2.118;2022-08-19T10:01:05;19.60;99.90
27645;DHT22;15054;57.152;-2.118;2022-08-19T10:03:35;19.70;99.90
27645;DHT22;15054;57.152;-2.118;2022-08-19T10:06:04;19.70;99.90
27645;DHT22;15054;57.152;-2.118;2022-08-19T10:08:41;19.70;99.90
27645;DHT22;15054;57.152;-2.118;2022-08-19T10:11:16;20.00;99.90
27645;DHT22;15054;57.152;-2.118;2022-08-19T10:14:03;20.10;99.90
27645;DHT22;15054;57.152;-2.118;2022-08-19T10:16:33;19.80;99.90
27645;DHT22;15054;57.152;-2.118;2022-08-19T10:19:05;19.80;99.90
27645;DHT22;15054;57.152;-2.118;2022-08-19T10:21:33;19.90;99.90
27645;DHT22;15054;57.152;-2.118;2022-08-19T10:24:03;20.00;99.90
27645;DHT22;15054;57.152;-2.118;2022-08-19T10:26:36;20.00;99.90
27645;DHT22;15054;57.152;-2.118;2022-08-19T10:29:04;20.10;99.90
27645;DHT22;15054;57.152;-2.118;2022-08-19T10:31:35;20.10;99.90
27645;DHT22;15054;57.152;-2.118;2022-08-19T10:34:22;20.00;99.90
27645;DHT22;15054;57.152;-2.118;2022-08-19T10:36:55;20.00;99.90
27645;DHT22;15054;57.152;-2.118;2022-08-19T10:39:32;20.10;99.90
27645;DHT22;15054;57.152;-2.118;2022-08-19T10:42:09;20.10;99.90
27645;DHT22;15054;57.152;-2.118;2022-08-19T10:44:40;20.20;99.90
27645;DHT22;15054;57.152;-2.118;2022-08-19T10:47:08;20.20;99.90
27645;DHT22;15054;57.152;-2.118;2022-08-19T10:49:51;20.30;99.90
27645;DHT22;15054;57.152;-2.118;2022-08-19T10:52:40;20.30;99.90
27645;DHT22;15054;57.152;-2.118;2022-08-19T10:55:19;20.20;99.90
27645;DHT22;15054;57.152;-2.118;2022-08-19T10:58:11;20.30;99.90
27645;DHT22;15054;57.152;-2.118;2022-08-19T11:00:39;20.30;99.90
27645;DHT22;15054;57.152;-2.118;2022-08-19T11:03:07;20.50;99.90
27645;DHT22;15054;57.152;-2.118;2022-08-19T11:05:36;20.60;99.90
27645;DHT22;15054;57.152;-2.118;2022-08-19T11:08:07;20.70;99.90
27645;DHT22;15054;57.152;-2.118;2022-08-19T11:10:54;20.60;99.90
27645;DHT22;15054;57.152;-2.118;2022-08-19T11:13:29;20.10;99.90
27645;DHT22;15054;57.152;-2.118;2022-08-19T11:16:17;19.60;99.90
27645;DHT22;15054;57.152;-2.118;2022-08-19T11:18:50;19.50;99.90
27645;DHT22;15054;57.152;-2.118;2022-08-19T11:21:24;19.40;99.90
27645;DHT22;15054;57.152;-2.118;2022-08-19T11:23:56;19.30;99.90
27645;DHT22;15054;57.152;-2.118;2022-08-19T11:26:24;19.00;99.90
27645;DHT22;15054;57.152;-2.118;2022-08-19T11:28:51;18.80;99.90
27645;DHT22;15054;57.152;-2.118;2022-08-19T11:31:26;19.10;99.90
27645;DHT22;15054;57.152;-2.118;2022-08-19T11:33:59;19.40;99.90
27645;DHT22;15054;57.152;-2.118;2022-08-19T11:36:27;19.70;99.90
27645;DHT22;15054;57.152;-2.118;2022-08-19T11:38:54;19.50;99.90
27645;DHT22;15054;57.152;-2.118;2022-08-19T11:41:23;19.80;99.90
27645;DHT22;15054;57.152;-2.118;2022-08-19T11:43:52;20.10;99.90
27645;DHT22;15054;57.152;-2.118;2022-08-19T11:46:23;20.30;99.90
27645;DHT22;15054;57.152;-2.118;2022-08-19T11:48:51;20.60;99.90
27645;DHT22;15054;57.152;-2.118;2022-08-19T11:51:22;21.00;99.90
27645;DHT22;15054;57.152;-2.118;2022-08-19T11:53:53;21.10;99.90
27645;DHT22;15054;57.152;-2.118;2022-08-19T11:56:21;20.90;99.90
27645;DHT22;15054;57.152;-2.118;2022-08-19T11:58:48;20.90;99.90
27645;DHT22;15054;57.152;-2.118;2022-08-19T12:01:22;20.80;99.90
27645;DHT22;15054;57.152;-2.118;2022-08-19T12:03:50;20.80;99.90
27645;DHT22;15054;57.152;-2.118;2022-08-19T12:06:24;20.60;99.90
27645;DHT22;15054;57.152;-2.118;2022-08-19T12:09:07;20.30;99.90
27645;DHT22;15054;57.152;-2.118;2022-08-19T12:11:39;20.80;99.90
27645;DHT22;15054;57.152;-2.118;2022-08-19T12:14:11;21.20;99.90
27645;DHT22;15054;57.152;-2.118;2022-08-19T12:16:43;21.10;99.90
27645;DHT22;15054;57.152;-2.118;2022-08-19T12:19:18;21.20;99.90
27645;DHT22;15054;57.152;-2.118;2022-08-19T12:21:49;21.10;99.90
27645;DHT22;15054;57.152;-2.118;2022-08-19T12:24:16;21.20;99.90
27645;DHT22;15054;57.152;-2.118;2022-08-19T12:26:47;21.00;99.90
27645;DHT22;15054;57.152;-2.118;2022-08-19T12:29:20;20.60;99.90
27645;DHT22;15054;57.152;-2.118;2022-08-19T12:31:50;20.30;99.90
27645;DHT22;15054;57.152;-2.118;2022-08-19T12:34:17;20.30;99.90
27645;DHT22;15054;57.152;-2.118;2022-08-19T12:36:46;20.60;99.90
27645;DHT22;15054;57.152;-2.118;2022-08-19T12:39:16;21.10;99.90
27645;DHT22;15054;57.152;-2.118;2022-08-19T12:41:43;21.30;99.90
27645;DHT22;15054;57.152;-2.118;2022-08-19T12:44:21;21.40;99.90
27645;DHT22;15054;57.152;-2.118;2022-08-19T12:46:56;21.30;99.90
27645;DHT22;15054;57.152;-2.118;2022-08-19T12:49:23;21.00;99.90
27645;DHT22;15054;57.152;-2.118;2022-08-19T12:52:12;20.90;99.90
27645;DHT22;15054;57.152;-2.118;2022-08-19T12:54:48;21.00;99.90
27645;DHT22;15054;57.152;-2.118;2022-08-19T12:57:22;21.40;99.90
27645;DHT22;15054;57.152;-2.118;2022-08-19T13:02:34;22.10;99.90
27645;DHT22;15054;57.152;-2.118;2022-08-19T13:05:07;21.90;99.90
27645;DHT22;15054;57.152;-2.118;2022-08-19T13:07:36;21.90;99.90
27645;DHT22;15054;57.152;-2.118;2022-08-19T13:10:06;22.00;99.90
27645;DHT22;15054;57.152;-2.118;2022-08-19T13:12:34;21.80;99.90
27645;DHT22;15054;57.152;-2.118;2022-08-19T13:15:02;21.80;99.90
27645;DHT22;15054;57.152;-2.118;2022-08-19T13:17:38;21.80;99.90
27645;DHT22;15054;57.152;-2.118;2022-08-19T13:20:10;21.50;99.90
27645;DHT22;15054;57.152;-2.118;2022-08-19T13:22:40;21.10;99.90
27645;DHT22;15054;57.152;-2.118;2022-08-19T13:25:08;20.80;99.90
27645;DHT22;15054;57.152;-2.118;2022-08-19T13:27:36;21.20;99.90
27645;DHT22;15054;57.152;-2.118;2022-08-19T13:30:05;21.60;99.90
27645;DHT22;15054;57.152;-2.118;2022-08-19T13:32:51;21.70;99.90
27645;DHT22;15054;57.152;-2.118;2022-08-19T13:35:56;21.90;99.90
27645;DHT22;15054;57.152;-2.118;2022-08-19T13:38:24;21.90;99.90
27645;DHT22;15054;57.152;-2.118;2022-08-19T13:40:53;21.80;99.90
27645;DHT22;15054;57.152;-2.118;2022-08-19T13:43:23;22.10;99.90
27645;DHT22;15054;57.152;-2.118;2022-08-19T13:45:54;21.80;99.90
27645;DHT22;15054;57.152;-2.118;2022-08-19T13:48:25;21.30;99.90
27645;DHT22;15054;57.152;-2.118;2022-08-19T13:50:54;21.30;99.90
27645;DHT22;15054;57.152;-2.118;2022-08-19T13:53:21;21.60;99.90
27645;DHT22;15054;57.152;-2.118;2022-08-19T13:55:48;21.30;99.90
27645;DHT22;15054;57.152;-2.118;2022-08-19T13:58:17;21.10;99.90
27645;DHT22;15054;57.152;-2.118;2022-08-19T14:00:46;21.10;99.90
27645;DHT22;15054;57.152;-2.118;2022-08-19T14:03:13;21.40;99.90
27645;DHT22;15054;57.152;-2.118;2022-08-19T14:05:41;21.20;99.90
27645;DHT22;15054;57.152;-2.118;2022-08-19T14:08:08;20.90;99.90
27645;DHT22;15054;57.152;-2.118;2022-08-19T14:10:36;20.70;99.90
27645;DHT22;15054;57.152;-2.118;2022-08-19T14:13:03;20.60;99.90
27645;DHT22;15054;57.152;-2.118;2022-08-19T14:15:31;20.60;99.90
27645;DHT22;15054;57.152;-2.118;2022-08-19T14:17:58;20.50;99.90
27645;DHT22;15054;57.152;-2.118;2022-08-19T14:20:26;20.70;99.90
27645;DHT22;15054;57.152;-2.118;2022-08-19T14:22:53;20.60;99.90
27645;DHT22;15054;57.152;-2.118;2022-08-19T14:25:24;20.50;99.90
27645;DHT22;15054;57.152;-2.118;2022-08-19T14:27:52;20.60;99.90
27645;DHT22;15054;57.152;-2.118;2022-08-19T14:30:32;20.80;99.90
27645;DHT22;15054;57.152;-2.118;2022-08-19T14:33:01;20.80;99.90
27645;DHT22;15054;57.152;-2.118;2022-08-19T14:35:31;20.70;99.90
27645;DHT22;15054;57.152;-2.118;2022-08-19T14:38:05;20.40;99.90
27645;DHT22;15054;57.152;-2.118;2022-08-19T14:40:33;20.20;99.90
27645;DHT22;15054;57.152;-2.118;2022-08-19T14:43:03;20.00;99.90
27645;DHT22;15054;57.152;-2.118;2022-08-19T14:45:34;19.90;99.90
27645;DHT22;15054;57.152;-2.118;2022-08-19T14:48:06;20.00;99.90
27645;DHT22;15054;57.152;-2.118;2022-08-19T14:50:44;20.00;99.90
27645;DHT22;15054;57.152;-2.118;2022-08-19T14:53:12;19.90;99.90
27645;DHT22;15054;57.152;-2.118;2022-08-19T14:55:43;19.80;99.90
27645;DHT22;15054;57.152;-2.118;2022-08-19T14:58:11;19.70;99.90
27645;DHT22;15054;57.152;-2.118;2022-08-19T15:00:58;19.70;99.90
27645;DHT22;15054;57.152;-2.118;2022-08-19T15:03:27;19.60;99.90
27645;DHT22;15054;57.152;-2.118;2022-08-19T15:05:54;19.50;99.90
27645;DHT22;15054;57.152;-2.118;2022-08-19T15:08:25;19.20;99.90
27645;DHT22;15054;57.152;-2.118;2022-08-19T15:10:53;19.10;99.90
27645;DHT22;15054;57.152;-2.118;2022-08-19T15:13:20;18.90;99.90
27645;DHT22;15054;57.152;-2.118;2022-08-19T15:15:48;18.80;99.90
27645;DHT22;15054;57.152;-2.118;2022-08-19T15:18:15;18.60;99.90
27645;DHT22;15054;57.152;-2.118;2022-08-19T15:20:42;18.60;99.90
27645;DHT22;15054;57.152;-2.118;2022-08-19T15:23:14;18.60;99.90
27645;DHT22;15054;57.152;-2.118;2022-08-19T15:25:41;18.60;99.90
27645;DHT22;15054;57.152;-2.118;2022-08-19T15:28:10;18.60;99.90
27645;DHT22;15054;57.152;-2.118;2022-08-19T15:30:40;18.70;99.90
27645;DHT22;15054;57.152;-2.118;2022-08-19T15:33:07;18.60;99.90
27645;DHT22;15054;57.152;-2.118;2022-08-19T15:35:35;18.60;99.90
27645;DHT22;15054;57.152;-2.118;2022-08-19T15:38:02;18.70;99.90
27645;DHT22;15054;57.152;-2.118;2022-08-19T15:40:29;18.70;99.90
27645;DHT22;15054;57.152;-2.118;2022-08-19T15:42:57;18.60;99.90
27645;DHT22;15054;57.152;-2.118;2022-08-19T15:45:25;18.70;99.90
27645;DHT22;15054;57.152;-2.118;2022-08-19T15:48:03;18.60;99.90
27645;DHT22;15054;57.152;-2.118;2022-08-19T15:50:31;18.60;99.90
27645;DHT22;15054;57.152;-2.118;2022-08-19T15:53:03;18.70;99.90